createdAt,value
2022-11-15T00:01:47.114Z,26.02
2022-11-15T00:04:13.613Z,24.58
2022-11-15T00:06:40.043Z,25.38
2022-11-15T00:09:06.514Z,24.85
2022-11-15T00:11:35.467Z,25.92
2022-11-15T00:14:03.396Z,25.48
2022-11-15T00:16:29.926Z,26.02
2022-11-15T00:18:56.506Z,25.60
2022-11-15T00:21:22.894Z,25.88
2022-11-15T00:23:49.383Z,25.55
2022-11-15T00:26:16.217Z,26.45
2022-11-15T00:28:42.833Z,26.25
2022-11-15T00:31:10.668Z,25.75
2022-11-15T00:33:37.075Z,28.00
2022-11-15T00:36:07.896Z,25.73
2022-11-15T00:38:34.863Z,24.80
2022-11-15T00:41:06.261Z,25.48
2022-11-15T00:43:35.988Z,25.15
2022-11-15T00:46:03.369Z,24.95
2022-11-15T00:48:30.217Z,24.65
2022-11-15T00:50:56.589Z,23.80
2022-11-15T00:53:23.027Z,25.27
2022-11-15T00:55:49.443Z,23.75
2022-11-15T00:58:15.900Z,22.73
2022-11-15T01:00:42.384Z,23.02
2022-11-15T01:03:08.900Z,23.65
2022-11-15T01:05:37.627Z,22.13
2022-11-15T01:08:04.129Z,20.80
2022-11-15T01:10:30.596Z,22.13
2022-11-15T01:12:57.036Z,21.65
2022-11-15T01:15:23.478Z,21.30
2022-11-15T01:17:50.977Z,21.73
2022-11-15T01:20:19.977Z,22.10
2022-11-15T01:22:47.601Z,21.33
2022-11-15T01:25:15.474Z,21.40
2022-11-15T01:27:43.119Z,21.80
2022-11-15T01:30:15.713Z,22.02
2022-11-15T01:32:43.390Z,20.08
2022-11-15T01:35:11.324Z,19.58
2022-11-15T01:37:41.407Z,18.80
2022-11-15T01:40:09.255Z,20.80
2022-11-15T01:42:36.985Z,21.30
2022-11-15T01:45:04.763Z,20.80
2022-11-15T01:47:41.899Z,20.17
2022-11-15T01:50:13.161Z,19.55
2022-11-15T01:52:41.243Z,20.75
2022-11-15T01:55:25.917Z,18.92
2022-11-15T01:57:58.985Z,18.88
2022-11-15T02:00:25.414Z,19.55
2022-11-15T02:02:53.198Z,19.08
2022-11-15T02:05:19.693Z,19.40
2022-11-15T02:07:47.012Z,18.00
2022-11-15T02:10:18.446Z,20.88
2022-11-15T02:12:46.727Z,19.15
2022-11-15T02:15:14.583Z,18.98
2022-11-15T02:17:52.992Z,19.20
2022-11-15T02:20:34.350Z,19.15
2022-11-15T02:23:19.351Z,18.48
2022-11-15T02:26:04.587Z,18.63
2022-11-15T02:28:49.755Z,18.70
2022-11-15T02:31:34.759Z,18.00
2022-11-15T02:34:21.270Z,17.55
2022-11-15T02:37:17.074Z,17.33
2022-11-15T02:40:02.363Z,16.80
2022-11-15T02:42:51.121Z,17.98
2022-11-15T02:45:40.579Z,16.27
2022-11-15T02:48:08.475Z,16.42
2022-11-15T02:50:36.346Z,16.38
2022-11-15T02:53:04.102Z,16.30
2022-11-15T02:55:34.725Z,17.95
2022-11-15T02:58:16.408Z,16.27
2022-11-15T03:01:00.111Z,16.45
2022-11-15T03:03:47.525Z,16.83
2022-11-15T03:06:16.931Z,15.45
2022-11-15T03:08:52.315Z,15.60
2022-11-15T03:11:20.933Z,16.83
2022-11-15T03:14:05.717Z,16.75
2022-11-15T03:16:40.704Z,16.13
2022-11-15T03:19:16.404Z,15.73
2022-11-15T03:21:45.182Z,15.43
2022-11-15T03:24:13.395Z,15.02
2022-11-15T03:26:42.147Z,17.58
2022-11-15T03:29:12.730Z,16.85
2022-11-15T03:31:50.705Z,15.80
2022-11-15T03:34:33.132Z,14.55
2022-11-15T03:36:59.644Z,15.45
2022-11-15T03:39:28.949Z,16.65
2022-11-15T03:42:18.680Z,16.67
2022-11-15T03:44:52.659Z,16.20
2022-11-15T03:47:37.700Z,17.13
2022-11-15T03:50:08.026Z,16.45
2022-11-15T03:52:35.708Z,16.25
2022-11-15T03:55:04.128Z,16.30
2022-11-15T03:57:31.599Z,15.88
2022-11-15T03:59:59.431Z,16.00
2022-11-15T04:02:25.896Z,15.80
2022-11-15T04:04:53.081Z,16.85
2022-11-15T04:07:19.587Z,15.55
2022-11-15T04:10:04.340Z,16.58
2022-11-15T04:12:34.527Z,16.17
2022-11-15T04:15:20.915Z,15.60
2022-11-15T04:17:48.870Z,16.42
2022-11-15T04:20:39.992Z,14.55
2022-11-15T04:23:25.982Z,15.65
2022-11-15T04:25:53.729Z,17.15
2022-11-15T04:28:20.540Z,15.60
2022-11-15T04:30:50.591Z,16.48
2022-11-15T04:33:18.266Z,15.48
2022-11-15T04:36:05.764Z,15.23
2022-11-15T04:38:33.868Z,16.75
2022-11-15T04:41:00.351Z,15.18
2022-11-15T04:43:28.169Z,16.13
2022-11-15T04:45:55.989Z,15.32
2022-11-15T04:48:23.744Z,15.20
2022-11-15T04:50:51.615Z,16.80
2022-11-15T04:53:19.366Z,16.08
2022-11-15T04:55:51.902Z,16.58
2022-11-15T04:58:19.345Z,16.42
2022-11-15T05:00:46.965Z,16.98
2022-11-15T05:03:34.318Z,17.75
2022-11-15T05:06:01.954Z,16.85
2022-11-15T05:08:29.471Z,15.70
2022-11-15T05:10:59.208Z,15.07
2022-11-15T05:13:28.401Z,15.70
2022-11-15T05:15:58.702Z,16.10
2022-11-15T05:18:26.430Z,14.65
2022-11-15T05:20:53.904Z,15.30
2022-11-15T05:23:21.503Z,13.85
2022-11-15T05:25:47.998Z,14.65
2022-11-15T05:28:15.736Z,14.93
2022-11-15T05:30:43.180Z,15.32
2022-11-15T05:33:11.862Z,15.40
2022-11-15T05:35:41.089Z,15.35
2022-11-15T05:38:08.698Z,14.50
2022-11-15T05:40:35.541Z,14.23
2022-11-15T05:43:05.059Z,14.85
2022-11-15T05:45:34.408Z,14.57
2022-11-15T05:48:04.838Z,15.38
2022-11-15T05:50:32.699Z,13.68
2022-11-15T05:53:05.160Z,16.13
2022-11-15T05:55:33.093Z,14.50
2022-11-15T05:58:01.110Z,14.65
2022-11-15T06:00:30.063Z,13.30
2022-11-15T06:02:57.527Z,13.98
2022-11-15T06:05:25.232Z,15.13
2022-11-15T06:07:53.230Z,14.90
2022-11-15T06:10:21.160Z,14.75
2022-11-15T06:12:47.633Z,16.10
2022-11-15T06:15:15.616Z,13.65
2022-11-15T06:17:43.378Z,13.73
2022-11-15T06:20:11.487Z,14.73
2022-11-15T06:22:40.877Z,14.52
2022-11-15T06:25:07.551Z,13.43
2022-11-15T06:27:35.314Z,14.18
2022-11-15T06:30:03.364Z,15.38
2022-11-15T06:32:31.708Z,15.50
2022-11-15T06:34:59.391Z,15.60
2022-11-15T06:37:27.129Z,14.82
2022-11-15T06:39:54.779Z,13.98
2022-11-15T06:42:22.397Z,14.05
2022-11-15T06:44:50.362Z,15.13
2022-11-15T06:47:16.798Z,15.88
2022-11-15T06:49:44.591Z,14.52
2022-11-15T06:52:12.276Z,15.25
2022-11-15T06:54:38.721Z,14.68
2022-11-15T06:57:06.479Z,15.10
2022-11-15T06:59:39.282Z,15.05
2022-11-15T07:02:12.616Z,16.98
2022-11-15T07:04:40.761Z,16.73
2022-11-15T07:07:07.343Z,15.10
2022-11-15T07:09:33.943Z,16.17
2022-11-15T07:12:07.333Z,15.85
2022-11-15T07:14:34.213Z,17.27
2022-11-15T07:17:04.380Z,16.35
2022-11-15T07:19:32.494Z,17.23
2022-11-15T07:21:58.925Z,16.88
2022-11-15T07:24:25.345Z,19.38
2022-11-15T07:26:51.880Z,18.52
2022-11-15T07:29:18.365Z,15.70
2022-11-15T07:31:44.795Z,15.68
2022-11-15T07:34:11.231Z,16.55
2022-11-15T07:36:37.720Z,15.70
2022-11-15T07:39:04.167Z,16.92
2022-11-15T07:41:30.858Z,17.10
2022-11-15T07:43:58.605Z,16.85
2022-11-15T07:46:25.026Z,17.60
2022-11-15T07:48:51.455Z,16.08
2022-11-15T07:51:18.353Z,17.17
2022-11-15T07:53:44.903Z,18.42
2022-11-15T07:56:11.393Z,17.88
2022-11-15T07:58:37.827Z,16.40
2022-11-15T08:01:05.817Z,16.42
2022-11-15T08:03:33.303Z,16.33
2022-11-15T20:26:12.472Z,136.68
2022-11-15T20:28:39.710Z,134.95
2022-11-15T20:31:06.987Z,131.18
2022-11-15T20:33:33.417Z,123.22
2022-11-15T20:36:03.170Z,120.93
2022-11-15T20:38:29.633Z,111.50
2022-11-15T20:40:59.961Z,106.70
2022-11-15T20:43:26.753Z,97.53
2022-11-15T20:45:53.181Z,97.05
2022-11-15T20:48:19.632Z,95.10
2022-11-15T20:50:47.180Z,88.90
2022-11-15T20:53:15.179Z,89.13
2022-11-15T20:55:43.252Z,90.82
2022-11-15T20:58:10.364Z,85.13
2022-11-15T21:00:37.287Z,90.95
2022-11-15T21:03:06.845Z,87.18
2022-11-15T21:05:39.834Z,95.85
2022-11-15T21:08:06.936Z,89.85
2022-11-15T21:10:52.460Z,91.63
2022-11-15T21:13:19.145Z,93.93
2022-11-15T21:15:45.599Z,89.65
2022-11-15T21:18:12.081Z,87.93
2022-11-15T21:20:38.585Z,87.45
2022-11-15T21:23:05.033Z,86.90
2022-11-15T21:25:32.712Z,81.82
2022-11-15T21:27:59.269Z,101.43
2022-11-15T21:30:25.719Z,100.70
2022-11-15T21:32:52.176Z,105.63
2022-11-15T21:35:18.598Z,104.65
2022-11-15T21:37:45.025Z,104.15
2022-11-15T21:40:11.687Z,103.47
2022-11-15T21:42:38.119Z,103.20
2022-11-15T21:45:04.786Z,97.38
2022-11-15T21:47:31.264Z,99.25
2022-11-15T21:49:57.696Z,98.53
2022-11-15T21:52:24.257Z,108.05
2022-11-15T21:54:50.690Z,112.20
2022-11-15T21:57:18.946Z,136.50
2022-11-15T22:00:03.769Z,128.68
2022-11-15T22:02:31.517Z,159.57
2022-11-15T22:04:58.418Z,119.57
2022-11-15T22:07:24.918Z,110.95
2022-11-15T22:09:51.507Z,114.40
2022-11-15T22:12:18.189Z,132.40
2022-11-15T22:14:44.607Z,117.55
2022-11-15T22:17:11.283Z,120.43
2022-11-15T22:19:51.595Z,122.43
2022-11-15T22:22:19.057Z,116.80
2022-11-15T22:24:45.559Z,121.68
2022-11-15T22:27:12.010Z,121.65
2022-11-15T22:29:38.444Z,110.30
2022-11-15T22:32:04.969Z,122.10
2022-11-15T22:34:31.410Z,106.45
2022-11-15T22:39:44.357Z,102.25
2022-11-15T22:42:10.840Z,110.63
2022-11-15T22:44:37.298Z,111.78
2022-11-15T22:47:03.795Z,103.95
2022-11-15T22:49:30.325Z,85.35
2022-11-15T22:51:56.802Z,100.20
2022-11-15T22:54:23.306Z,102.78
2022-11-15T22:56:49.768Z,94.70
2022-11-15T22:59:16.217Z,115.82
2022-11-15T23:01:43.060Z,111.65
2022-11-15T23:04:09.486Z,89.47
2022-11-15T23:06:36.021Z,108.95
2022-11-15T23:09:02.544Z,106.50
2022-11-15T23:11:47.390Z,84.75
2022-11-15T23:14:13.954Z,111.55
2022-11-15T23:16:40.589Z,113.38
2022-11-15T23:19:08.216Z,118.53
2022-11-15T23:21:54.562Z,112.88
2022-11-15T23:24:21.654Z,116.43
2022-11-15T23:26:49.841Z,114.03
2022-11-15T23:29:17.437Z,122.85
2022-11-15T23:32:02.918Z,119.32
2022-11-15T23:34:34.958Z,112.25
2022-11-15T23:39:27.947Z,114.97
2022-11-15T23:41:54.593Z,104.88
2022-11-15T23:44:21.362Z,114.00
2022-11-15T23:46:47.901Z,117.82
2022-11-15T23:49:14.373Z,122.30
2022-11-15T23:51:40.823Z,118.85
2022-11-15T23:54:07.422Z,128.65
2022-11-15T23:56:34.174Z,129.38
2022-11-15T23:59:00.710Z,128.77
